createdAt,value
2022-12-28T00:01:49.028Z,7.69
2022-12-28T00:04:15.688Z,7.70
2022-12-28T00:06:42.125Z,7.73
2022-12-28T00:09:11.312Z,7.74
2022-12-28T00:11:37.898Z,7.76
2022-12-28T00:14:04.318Z,7.77
2022-12-28T00:16:33.898Z,7.78
2022-12-28T00:19:02.936Z,7.79
2022-12-28T00:21:29.897Z,7.80
2022-12-28T00:23:58.846Z,7.83
2022-12-28T00:26:27.238Z,7.84
2022-12-28T00:28:58.362Z,7.83
2022-12-28T00:31:28.239Z,7.86
2022-12-28T00:33:54.709Z,7.88
2022-12-28T00:36:21.029Z,7.90
2022-12-28T00:38:47.409Z,7.91
2022-12-28T00:41:13.779Z,7.93
2022-12-28T00:43:40.224Z,7.95
2022-12-28T00:46:06.750Z,7.97
2022-12-28T00:48:33.179Z,7.98
2022-12-28T00:51:08.340Z,8.01
2022-12-28T00:53:35.044Z,8.02
2022-12-28T00:56:09.892Z,8.05
2022-12-28T00:58:36.694Z,8.07
2022-12-28T01:01:04.462Z,8.10
2022-12-28T01:03:31.078Z,8.11
2022-12-28T01:05:57.474Z,8.13
2022-12-28T01:08:23.917Z,8.17
2022-12-28T01:10:50.452Z,8.19
2022-12-28T01:13:16.864Z,8.21
2022-12-28T01:15:43.212Z,8.23
2022-12-28T01:18:09.590Z,8.24
2022-12-28T01:20:40.332Z,8.25
2022-12-28T01:23:07.023Z,8.25
2022-12-28T01:25:34.074Z,8.26
2022-12-28T01:28:00.391Z,8.25
2022-12-28T01:30:26.813Z,8.26
2022-12-28T01:32:53.364Z,8.25
2022-12-28T01:35:19.783Z,8.24
2022-12-28T01:37:46.139Z,8.23
2022-12-28T01:40:15.765Z,8.23
2022-12-28T01:42:42.180Z,8.23
2022-12-28T01:45:22.092Z,8.24
2022-12-28T01:47:53.195Z,8.24
2022-12-28T01:50:24.970Z,8.24
2022-12-28T01:53:04.864Z,8.25
2022-12-28T01:55:35.279Z,8.24
2022-12-28T01:58:10.130Z,8.25
2022-12-28T02:00:36.862Z,8.25
2022-12-28T02:03:10.645Z,8.25
2022-12-28T02:05:41.420Z,8.26
2022-12-28T02:08:17.166Z,8.27
2022-12-28T02:10:46.009Z,8.27
2022-12-28T02:13:15.363Z,8.28
2022-12-28T02:15:42.617Z,8.29
2022-12-28T02:18:09.906Z,8.28
2022-12-28T02:21:11.108Z,8.29
2022-12-28T02:24:07.543Z,8.31
2022-12-28T02:26:46.167Z,8.32
2022-12-28T02:29:37.582Z,8.31
2022-12-28T02:32:16.681Z,8.31
2022-12-28T02:35:08.725Z,8.31
2022-12-28T02:37:51.344Z,8.30
2022-12-28T02:40:23.745Z,8.30
2022-12-28T02:42:52.207Z,8.28
2022-12-28T02:45:53.867Z,8.29
2022-12-28T02:48:39.334Z,8.28
2022-12-28T02:51:21.840Z,8.27
2022-12-28T02:53:58.884Z,8.26
2022-12-28T02:56:44.331Z,8.28
2022-12-28T02:59:16.783Z,8.29
2022-12-28T03:01:49.299Z,8.30
2022-12-28T03:04:30.128Z,8.31
2022-12-28T03:07:26.879Z,8.32
2022-12-28T03:09:59.767Z,8.38
2022-12-28T03:12:38.487Z,8.41
2022-12-28T03:15:10.427Z,8.40
2022-12-28T03:17:59.529Z,8.41
2022-12-28T03:20:49.496Z,8.41
2022-12-28T03:23:41.524Z,8.44
2022-12-28T03:26:29.627Z,8.44
2022-12-28T03:29:17.903Z,8.48
2022-12-28T03:31:44.730Z,8.49
2022-12-28T03:34:11.218Z,8.51
2022-12-28T03:37:10.100Z,8.55
2022-12-28T03:39:50.555Z,8.59
2022-12-28T03:42:44.346Z,8.61
2022-12-28T03:45:45.166Z,8.66
2022-12-28T03:48:09.259Z,8.68
2022-12-28T03:50:38.557Z,8.72
2022-12-28T03:53:04.898Z,8.74
2022-12-28T03:55:31.400Z,8.75
2022-12-28T03:57:57.852Z,8.79
2022-12-28T04:00:24.287Z,8.81
2022-12-28T04:02:50.721Z,8.83
2022-12-28T04:05:17.263Z,8.87
2022-12-28T04:07:43.707Z,8.89
2022-12-28T04:10:11.736Z,8.90
2022-12-28T04:12:38.181Z,8.91
2022-12-28T04:15:05.488Z,8.91
2022-12-28T04:17:31.871Z,8.93
2022-12-28T04:19:58.289Z,8.93
2022-12-28T04:22:24.647Z,8.94
2022-12-28T04:24:51.066Z,8.95
2022-12-28T04:27:17.488Z,8.94
2022-12-28T04:29:43.928Z,8.96
2022-12-28T04:32:10.285Z,8.95
2022-12-28T04:34:36.669Z,8.94
2022-12-28T04:37:03.035Z,8.94
2022-12-28T04:39:55.666Z,8.94
2022-12-28T04:42:15.713Z,8.97
2022-12-28T04:44:41.981Z,8.99
2022-12-28T04:47:08.457Z,8.98
2022-12-28T04:49:34.800Z,8.95
2022-12-28T04:52:01.181Z,8.92
2022-12-28T04:54:27.608Z,8.90
2022-12-28T04:56:53.950Z,8.91
2022-12-28T04:59:20.379Z,8.90
2022-12-28T05:01:46.942Z,8.90
2022-12-28T05:04:13.440Z,8.91
2022-12-28T05:06:39.946Z,8.89
2022-12-28T05:09:06.330Z,8.91
2022-12-28T05:11:32.840Z,8.92
2022-12-28T05:13:59.455Z,8.93
2022-12-28T05:16:27.856Z,8.93
2022-12-28T05:18:56.537Z,8.95
2022-12-28T05:21:25.788Z,8.96
2022-12-28T05:23:53.315Z,8.97
2022-12-28T05:26:22.601Z,8.99
2022-12-28T05:28:49.371Z,8.99
2022-12-28T05:31:21.793Z,9.01
2022-12-28T05:33:48.648Z,9.01
2022-12-28T05:36:17.803Z,9.01
2022-12-28T05:38:44.850Z,9.01
2022-12-28T05:41:23.268Z,9.02
2022-12-28T05:43:50.226Z,9.04
2022-12-28T05:46:24.593Z,9.06
2022-12-28T05:48:51.457Z,9.06
2022-12-28T05:51:19.815Z,9.07
2022-12-28T05:53:46.684Z,9.07
2022-12-28T05:56:14.524Z,9.08
2022-12-28T05:58:42.852Z,9.09
2022-12-28T06:01:17.648Z,9.11
2022-12-28T06:03:45.307Z,9.13
2022-12-28T06:06:17.404Z,9.14
2022-12-28T06:08:45.376Z,9.15
2022-12-28T06:11:15.164Z,9.16
2022-12-28T06:13:41.543Z,9.16
2022-12-28T06:16:11.337Z,9.17
2022-12-28T06:18:37.809Z,9.17
2022-12-28T06:21:07.294Z,9.17
2022-12-28T06:23:33.763Z,9.17
2022-12-28T06:26:02.125Z,9.19
2022-12-28T06:28:29.088Z,9.20
2022-12-28T06:31:03.521Z,9.22
2022-12-28T06:33:30.640Z,9.22
2022-12-28T06:35:56.996Z,9.25
2022-12-28T06:38:23.368Z,9.26
2022-12-28T06:41:12.077Z,9.28
2022-12-28T06:43:37.016Z,9.33
2022-12-28T06:46:03.894Z,9.33
2022-12-28T06:48:31.480Z,9.34
2022-12-28T06:51:04.373Z,9.35
2022-12-28T06:53:34.356Z,9.36
2022-12-28T06:56:08.236Z,9.37
2022-12-28T06:58:34.771Z,9.38
2022-12-28T07:01:14.009Z,9.41
2022-12-28T07:03:41.666Z,9.41
2022-12-28T07:06:08.197Z,9.43
2022-12-28T07:08:35.940Z,9.44
2022-12-28T07:11:08.620Z,9.45
2022-12-28T07:13:35.495Z,9.47
2022-12-28T07:16:03.742Z,9.48
2022-12-28T07:18:30.146Z,9.49
2022-12-28T07:21:01.817Z,9.52
2022-12-28T07:23:30.145Z,9.51
2022-12-28T07:25:58.090Z,9.52
2022-12-28T07:28:24.991Z,9.52
2022-12-28T07:42:10.756Z,9.51
2022-12-28T07:44:38.380Z,9.66
2022-12-28T07:47:05.340Z,9.78
2022-12-28T07:49:31.698Z,9.83
2022-12-28T07:51:58.036Z,9.86
2022-12-28T07:54:24.443Z,9.87
2022-12-28T07:56:50.845Z,9.86
2022-12-28T07:59:17.165Z,9.86
2022-12-28T08:01:43.601Z,9.85
2022-12-28T08:04:15.892Z,9.85
2022-12-28T08:06:45.105Z,9.83
2022-12-28T08:09:13.735Z,9.83
2022-12-28T08:11:42.894Z,9.83
2022-12-28T08:14:10.357Z,9.84
2022-12-28T08:16:39.487Z,9.84
2022-12-28T08:19:07.295Z,9.85
2022-12-28T08:21:36.942Z,9.85
2022-12-28T08:24:03.996Z,9.86
2022-12-28T08:26:36.360Z,9.87
2022-12-28T08:29:07.094Z,9.88
2022-12-28T08:31:36.435Z,9.88
2022-12-28T08:34:04.721Z,9.90
2022-12-28T08:36:31.170Z,9.90
2022-12-28T08:38:57.806Z,9.92
2022-12-28T08:41:25.939Z,9.94
2022-12-28T08:43:53.816Z,9.96
2022-12-28T08:46:32.311Z,9.98
2022-12-28T08:49:00.109Z,10.00
2022-12-28T08:51:29.499Z,10.03
2022-12-28T08:53:55.859Z,10.03
2022-12-28T08:56:24.861Z,10.05
2022-12-28T08:58:52.026Z,10.08
2022-12-28T09:01:24.976Z,10.11
2022-12-28T09:03:53.675Z,10.13
2022-12-28T09:06:30.283Z,10.17
2022-12-28T09:09:06.621Z,10.18
2022-12-28T09:11:37.034Z,10.22
2022-12-28T09:14:05.208Z,10.24
2022-12-28T09:16:31.806Z,10.25
2022-12-28T09:19:00.447Z,10.28
2022-12-28T09:21:29.661Z,10.31
2022-12-28T09:23:56.071Z,10.31
2022-12-28T09:26:25.420Z,10.34
2022-12-28T09:28:54.497Z,10.37
2022-12-28T09:31:23.439Z,10.37
2022-12-28T09:36:46.749Z,10.44
2022-12-28T09:39:17.255Z,10.46
2022-12-28T09:41:50.108Z,10.47
2022-12-28T09:44:45.601Z,10.51
2022-12-28T09:47:36.932Z,10.54
2022-12-28T09:50:09.007Z,10.58
2022-12-28T09:52:49.652Z,10.60
2022-12-28T09:55:18.817Z,10.61
2022-12-28T09:57:49.387Z,10.63
2022-12-28T10:00:21.840Z,10.65
2022-12-28T10:03:01.877Z,10.67
2022-12-28T10:05:29.134Z,10.68
2022-12-28T10:07:58.435Z,10.71
2022-12-28T10:10:27.085Z,10.73
2022-12-28T10:12:54.009Z,10.76
2022-12-28T10:15:28.599Z,10.79
2022-12-28T10:17:55.056Z,10.82
2022-12-28T10:20:22.760Z,10.84
2022-12-28T10:22:55.895Z,10.87
2022-12-28T10:25:24.995Z,10.89
2022-12-28T10:27:52.231Z,10.91
2022-12-28T10:30:27.032Z,10.95
2022-12-28T10:33:03.068Z,10.97
2022-12-28T10:35:48.344Z,11.01
2022-12-28T10:38:30.931Z,11.05
2022-12-28T10:41:05.079Z,11.06
2022-12-28T10:43:36.621Z,11.07
2022-12-28T10:46:06.723Z,11.08
2022-12-28T10:48:38.064Z,11.10
2022-12-28T10:51:18.606Z,11.11
2022-12-28T10:53:48.301Z,11.12
2022-12-28T10:56:14.589Z,11.12
2022-12-28T10:58:45.948Z,11.12
2022-12-28T11:01:12.327Z,11.15
2022-12-28T11:03:40.289Z,11.17
2022-12-28T11:06:09.546Z,11.19
2022-12-28T11:08:36.702Z,11.19
2022-12-28T11:11:03.296Z,11.18
2022-12-28T11:13:30.075Z,11.18
2022-12-28T11:15:56.540Z,11.19
2022-12-28T11:18:23.145Z,11.18
2022-12-28T11:20:52.369Z,11.17
2022-12-28T11:23:21.682Z,11.17
2022-12-28T11:25:48.526Z,11.16
2022-12-28T11:28:22.436Z,11.17
2022-12-28T11:30:51.091Z,11.16
2022-12-28T11:33:44.605Z,11.16
2022-12-28T11:36:32.201Z,11.16
2022-12-28T11:38:58.841Z,11.15
2022-12-28T11:41:30.338Z,11.16
2022-12-28T11:44:02.847Z,11.17
2022-12-28T11:46:35.223Z,11.19
2022-12-28T11:49:26.205Z,11.20
2022-12-28T11:52:34.059Z,11.22
2022-12-28T11:55:39.495Z,11.23
2022-12-28T11:58:30.620Z,11.25
2022-12-28T12:00:59.861Z,11.23
2022-12-28T12:03:59.001Z,11.25
2022-12-28T12:06:43.462Z,11.25
2022-12-28T12:09:22.183Z,11.26
2022-12-28T12:11:50.671Z,11.26
2022-12-28T12:14:23.972Z,11.28
2022-12-28T12:17:02.834Z,11.28
2022-12-28T12:19:37.356Z,11.29
2022-12-28T12:22:13.971Z,11.30
2022-12-28T12:24:50.036Z,11.31
2022-12-28T12:27:32.284Z,11.31
2022-12-28T12:30:04.846Z,11.32
2022-12-28T12:32:42.735Z,11.33
2022-12-28T12:35:15.611Z,11.33
2022-12-28T12:38:29.354Z,11.34
2022-12-28T12:41:23.958Z,11.34
2022-12-28T12:44:29.921Z,11.34
2022-12-28T12:47:37.553Z,11.35
2022-12-28T12:50:24.470Z,11.35
2022-12-28T12:53:17.241Z,11.35
2022-12-28T12:55:55.999Z,11.34
2022-12-28T12:58:52.572Z,11.35
2022-12-28T13:01:27.582Z,11.36
2022-12-28T13:04:06.560Z,11.36
2022-12-28T13:06:35.660Z,11.37
2022-12-28T13:09:06.030Z,11.37
2022-12-28T13:11:36.893Z,11.38
2022-12-28T13:14:04.493Z,11.38
2022-12-28T13:16:32.525Z,11.38
2022-12-28T13:19:07.436Z,11.40
2022-12-28T13:21:43.034Z,11.41
2022-12-28T13:24:23.421Z,11.41
2022-12-28T13:26:50.276Z,11.39
2022-12-28T13:29:25.297Z,11.39
2022-12-28T13:31:52.362Z,11.38
2022-12-28T13:34:26.525Z,11.39
2022-12-28T13:37:13.655Z,11.39
2022-12-28T13:39:42.449Z,11.38
2022-12-28T13:42:25.645Z,11.38
2022-12-28T13:45:00.224Z,11.39
2022-12-28T13:47:35.058Z,11.38
2022-12-28T13:50:03.756Z,11.38
2022-12-28T13:52:38.570Z,11.40
2022-12-28T13:55:15.028Z,11.42
2022-12-28T13:57:48.186Z,11.43
2022-12-28T14:00:18.622Z,11.43
2022-12-28T14:02:46.359Z,11.44
2022-12-28T14:05:22.554Z,11.46
2022-12-28T14:07:50.618Z,11.45
2022-12-28T14:10:18.341Z,11.45
2022-12-28T14:12:45.696Z,11.47
2022-12-28T14:15:13.341Z,11.47
2022-12-28T14:17:41.076Z,11.47
2022-12-28T14:20:08.847Z,11.46
2022-12-28T14:22:38.059Z,11.46
2022-12-28T14:25:06.372Z,11.47
2022-12-28T14:27:36.899Z,11.46
2022-12-28T14:30:05.534Z,11.47
2022-12-28T14:32:39.010Z,11.47
2022-12-28T14:35:17.838Z,11.48
2022-12-28T14:37:46.453Z,11.47
2022-12-28T14:40:25.198Z,11.48
2022-12-28T14:42:53.971Z,11.47
2022-12-28T14:48:38.069Z,11.45
2022-12-28T14:51:23.509Z,11.43
2022-12-28T14:54:20.166Z,11.43
2022-12-28T14:56:52.029Z,11.42
2022-12-28T14:59:30.487Z,11.40
2022-12-28T15:00:25.715Z,11.47
2022-12-28T15:01:56.941Z,11.38
2022-12-28T15:04:38.368Z,11.37
2022-12-28T15:07:06.599Z,11.35
2022-12-28T15:09:33.758Z,11.32
2022-12-28T15:12:14.747Z,11.32
2022-12-28T15:14:41.508Z,11.29
2022-12-28T15:17:08.849Z,11.28
2022-12-28T15:19:35.411Z,11.27
2022-12-28T15:22:02.221Z,11.27
2022-12-28T15:24:33.775Z,11.25
2022-12-28T15:27:00.785Z,11.27
2022-12-28T15:29:47.869Z,11.26
2022-12-28T15:32:13.356Z,11.31
2022-12-28T15:34:39.736Z,11.29
2022-12-28T15:37:06.089Z,11.27
2022-12-28T15:39:32.575Z,11.26
2022-12-28T15:41:58.912Z,11.25
2022-12-28T15:44:25.344Z,11.24
2022-12-28T15:46:51.971Z,11.23
2022-12-28T15:49:18.572Z,11.23
2022-12-28T15:51:45.876Z,11.21
2022-12-28T15:54:13.506Z,11.22
2022-12-28T15:56:41.598Z,11.22
2022-12-28T15:59:13.363Z,11.23
2022-12-28T16:01:42.484Z,11.20
2022-12-28T16:04:09.513Z,11.21
2022-12-28T16:06:41.811Z,11.22
2022-12-28T16:09:10.569Z,11.23
2022-12-28T16:11:37.216Z,11.23
2022-12-28T16:14:05.759Z,11.24
2022-12-28T16:16:36.743Z,11.24
2022-12-28T16:19:06.765Z,11.24
2022-12-28T16:21:33.579Z,11.24
2022-12-28T16:24:00.501Z,11.25
2022-12-28T16:26:28.082Z,11.26
2022-12-28T16:28:54.508Z,11.24
2022-12-28T16:31:23.651Z,11.24
2022-12-28T16:34:00.936Z,11.25
2022-12-28T16:36:27.635Z,11.23
2022-12-28T16:38:54.526Z,11.22
2022-12-28T16:41:21.797Z,11.21
2022-12-28T16:43:48.617Z,11.22
2022-12-28T16:46:15.394Z,11.23
2022-12-28T16:48:42.695Z,11.23
2022-12-28T16:51:09.576Z,11.24
2022-12-28T16:53:37.398Z,11.24
2022-12-28T16:56:06.049Z,11.25
2022-12-28T16:58:32.642Z,11.23
2022-12-28T17:01:08.044Z,11.23
2022-12-28T17:03:34.932Z,11.21
2022-12-28T17:06:01.710Z,11.20
2022-12-28T17:08:28.158Z,11.20
2022-12-28T17:10:54.739Z,11.18
2022-12-28T17:13:21.114Z,11.18
2022-12-28T17:15:47.453Z,11.16
2022-12-28T17:18:14.287Z,11.17
2022-12-28T17:20:41.128Z,11.18
2022-12-28T17:23:08.184Z,11.18
2022-12-28T17:25:35.542Z,11.19
2022-12-28T17:28:02.146Z,11.20
2022-12-28T17:30:28.719Z,11.21
2022-12-28T17:32:55.492Z,11.23
2022-12-28T17:35:22.005Z,11.24
2022-12-28T17:37:48.428Z,11.25
2022-12-28T17:40:14.987Z,11.27
2022-12-28T17:42:41.329Z,11.27
2022-12-28T17:45:11.719Z,11.28
2022-12-28T17:47:38.605Z,11.29
2022-12-28T17:50:06.249Z,11.30
2022-12-28T17:52:32.622Z,11.32
2022-12-28T17:54:59.115Z,11.34
2022-12-28T17:57:25.459Z,11.34
2022-12-28T17:59:51.805Z,11.34
2022-12-28T18:02:18.321Z,11.36
2022-12-28T18:04:44.949Z,11.37
2022-12-28T18:07:11.324Z,11.38
2022-12-28T18:09:37.725Z,11.38
2022-12-28T18:12:04.225Z,11.38
2022-12-28T18:14:30.590Z,11.39
2022-12-28T18:16:57.077Z,11.39
2022-12-28T18:19:23.531Z,11.37
2022-12-28T18:21:49.969Z,11.37
2022-12-28T18:24:17.911Z,11.37
2022-12-28T18:26:44.399Z,11.36
2022-12-28T18:29:10.914Z,11.34
2022-12-28T18:31:37.390Z,11.33
2022-12-28T18:34:04.240Z,11.32
2022-12-28T18:36:30.688Z,11.31
2022-12-28T18:38:57.043Z,11.29
2022-12-28T18:41:25.552Z,11.27
2022-12-28T18:43:57.059Z,11.26
2022-12-28T18:46:23.509Z,11.24
2022-12-28T18:48:49.855Z,11.23
2022-12-28T18:51:17.687Z,11.20
2022-12-28T18:53:44.456Z,11.19
2022-12-28T18:56:14.459Z,11.19
2022-12-28T18:58:42.002Z,11.18
2022-12-28T19:01:48.112Z,11.17
2022-12-28T19:04:03.877Z,11.16
2022-12-28T19:06:30.466Z,11.16
2022-12-28T19:09:00.517Z,11.14
2022-12-28T19:11:27.673Z,11.12
2022-12-28T19:13:54.271Z,11.11
2022-12-28T19:16:27.028Z,11.09
2022-12-28T19:18:57.030Z,11.07
2022-12-28T19:21:29.543Z,11.08
2022-12-28T19:23:58.451Z,11.06
2022-12-28T19:26:25.410Z,11.04
2022-12-28T19:28:52.428Z,11.03
2022-12-28T19:31:18.902Z,11.02
2022-12-28T19:33:45.391Z,11.02
2022-12-28T19:36:12.302Z,11.01
2022-12-28T19:38:39.022Z,11.00
2022-12-28T19:41:10.673Z,10.98
2022-12-28T19:43:37.437Z,10.96
2022-12-28T19:46:20.820Z,10.96
2022-12-28T19:48:47.347Z,10.95
2022-12-28T19:51:14.896Z,10.96
2022-12-28T19:53:41.744Z,10.95
2022-12-28T19:56:11.895Z,10.94
2022-12-28T19:58:39.570Z,10.95
2022-12-28T20:01:08.630Z,10.95
2022-12-28T20:03:35.402Z,10.96
2022-12-28T20:06:14.019Z,11.00
2022-12-28T20:08:45.797Z,10.99
2022-12-28T20:11:12.424Z,10.99
2022-12-28T20:13:38.874Z,11.01
2022-12-28T20:16:05.526Z,11.02
2022-12-28T20:18:32.029Z,11.01
2022-12-28T20:21:19.267Z,11.02
2022-12-28T20:23:48.146Z,11.02
2022-12-28T20:26:14.981Z,11.03
2022-12-28T20:28:41.308Z,11.03
2022-12-28T20:31:10.867Z,11.03
2022-12-28T20:33:37.681Z,11.03
2022-12-28T20:36:07.470Z,11.04
2022-12-28T20:38:34.812Z,11.04
2022-12-28T20:41:50.603Z,11.06
2022-12-28T20:44:25.857Z,11.08
2022-12-28T20:46:52.877Z,11.07
2022-12-28T20:49:19.386Z,11.07
2022-12-28T20:51:47.745Z,11.09
2022-12-28T20:54:14.237Z,11.08
2022-12-28T20:56:42.336Z,11.08
2022-12-28T20:59:10.421Z,11.09
2022-12-28T21:01:37.325Z,11.10
2022-12-28T21:04:04.870Z,11.10
2022-12-28T21:06:31.440Z,11.11
2022-12-28T21:08:57.957Z,11.13
2022-12-28T21:11:25.222Z,11.13
2022-12-28T21:13:51.651Z,11.14
2022-12-28T21:16:18.532Z,11.16
2022-12-28T21:18:44.956Z,11.19
2022-12-28T21:21:16.444Z,11.21
2022-12-28T21:23:42.919Z,11.20
2022-12-28T21:26:15.189Z,11.24
2022-12-28T21:28:42.545Z,11.24
2022-12-28T21:31:10.241Z,11.25
2022-12-28T21:33:37.685Z,11.26
2022-12-28T21:36:09.273Z,11.28
2022-12-28T21:38:38.198Z,11.29
2022-12-28T21:41:13.718Z,11.31
2022-12-28T21:43:40.735Z,11.31
2022-12-28T21:46:11.270Z,11.35
2022-12-28T21:48:38.744Z,11.35
2022-12-28T21:51:06.623Z,11.37
2022-12-28T21:53:33.046Z,11.40
2022-12-28T21:55:59.353Z,11.42
2022-12-28T21:58:25.684Z,11.45
2022-12-28T22:01:15.993Z,11.48
2022-12-28T22:04:01.799Z,11.51
2022-12-28T22:06:28.198Z,11.52
2022-12-28T22:09:13.089Z,11.53
2022-12-28T22:11:57.723Z,11.56
2022-12-28T22:14:24.173Z,11.58
2022-12-28T22:16:50.652Z,11.60
2022-12-28T22:19:17.112Z,11.61
2022-12-28T22:21:44.029Z,11.64
2022-12-28T22:24:10.529Z,11.67
2022-12-28T22:26:36.934Z,11.69
2022-12-28T22:29:03.721Z,11.71
2022-12-28T22:31:30.240Z,11.73
2022-12-28T22:33:59.389Z,11.75
2022-12-28T22:36:29.741Z,11.78
2022-12-28T22:38:56.291Z,11.79
2022-12-28T22:41:22.933Z,11.82
2022-12-28T22:43:51.237Z,11.85
2022-12-28T22:46:17.978Z,11.85
2022-12-28T22:48:44.739Z,11.88
2022-12-28T22:51:13.769Z,11.90
2022-12-28T22:53:40.594Z,11.92
2022-12-28T22:56:10.895Z,11.94
2022-12-28T22:58:37.729Z,11.95
2022-12-28T23:01:05.258Z,11.98
2022-12-28T23:03:32.061Z,12.01
2022-12-28T23:05:58.508Z,12.03
2022-12-28T23:08:25.006Z,12.05
2022-12-28T23:11:00.347Z,12.08
2022-12-28T23:13:27.775Z,12.10
2022-12-28T23:15:57.683Z,12.13
2022-12-28T23:18:56.454Z,12.15
2022-12-28T23:21:42.856Z,12.17
2022-12-28T23:24:29.411Z,12.23
2022-12-28T23:27:14.660Z,12.23
2022-12-28T23:29:41.196Z,12.22
2022-12-28T23:32:07.611Z,12.22
2022-12-28T23:34:34.030Z,12.21
2022-12-28T23:37:00.671Z,12.22
2022-12-28T23:39:27.238Z,12.21
2022-12-28T23:41:53.779Z,12.20
2022-12-28T23:44:22.832Z,12.21
2022-12-28T23:46:55.196Z,12.20
2022-12-28T23:49:24.980Z,12.22
2022-12-28T23:51:51.430Z,12.21
2022-12-28T23:54:19.365Z,12.20
2022-12-28T23:56:46.178Z,12.20
2022-12-28T23:59:12.799Z,12.21
